createdAt,value
2024-04-17T00:01:31.104Z,99.90
2024-04-17T00:04:00.792Z,99.90
2024-04-17T00:06:27.859Z,99.90
2024-04-17T00:08:57.418Z,99.90
2024-04-17T00:11:25.233Z,99.90
2024-04-17T00:13:54.913Z,99.90
2024-04-17T00:16:21.979Z,99.90
2024-04-17T00:18:54.215Z,99.90
2024-04-17T00:21:21.231Z,99.90
2024-04-17T00:23:50.788Z,99.90
2024-04-17T00:26:17.810Z,99.90
2024-04-17T00:28:47.420Z,99.90
2024-04-17T00:31:15.476Z,99.90
2024-04-17T00:33:45.304Z,99.90
2024-04-17T00:36:14.931Z,99.90
2024-04-17T00:38:44.519Z,99.90
2024-04-17T00:41:12.777Z,99.90
2024-04-17T00:43:42.381Z,99.90
2024-04-17T00:46:10.222Z,99.90
2024-04-17T00:48:39.826Z,99.90
2024-04-17T00:51:06.803Z,99.90
2024-04-17T00:53:39.232Z,99.90
2024-04-17T00:56:07.076Z,99.90
2024-04-17T00:58:37.102Z,99.90
2024-04-17T01:01:04.413Z,99.90
2024-04-17T01:03:34.283Z,99.90
2024-04-17T01:06:01.397Z,99.90
2024-04-17T01:08:30.994Z,99.90
2024-04-17T01:11:04.131Z,99.90
2024-04-17T01:13:33.985Z,99.90
2024-04-17T01:16:01.057Z,99.90
2024-04-17T01:18:30.701Z,99.90
2024-04-17T01:20:57.794Z,99.90
2024-04-17T01:23:27.401Z,99.90
2024-04-17T01:25:57.062Z,99.90
2024-04-17T01:28:26.834Z,99.90
2024-04-17T01:30:53.866Z,99.90
2024-04-17T01:33:23.509Z,99.90
2024-04-17T01:35:50.582Z,99.90
2024-04-17T01:38:20.178Z,99.90
2024-04-17T01:40:47.219Z,99.90
2024-04-17T01:43:19.486Z,99.90
2024-04-17T01:45:46.928Z,99.90
2024-04-17T01:48:16.624Z,99.90
2024-04-17T01:50:43.742Z,99.90
2024-04-17T01:53:13.403Z,99.90
2024-04-17T01:55:40.436Z,99.90
2024-04-17T01:58:10.063Z,99.90
2024-04-17T02:00:39.700Z,99.90
2024-04-17T02:03:10.727Z,99.90
2024-04-17T02:05:37.899Z,99.90
2024-04-17T02:08:08.115Z,99.90
2024-04-17T02:10:35.169Z,99.90
2024-04-17T02:13:04.783Z,99.90
2024-04-17T02:15:32.712Z,99.90
2024-04-17T02:18:05.012Z,99.90
2024-04-17T02:20:32.099Z,99.90
2024-04-17T02:23:01.713Z,99.90
2024-04-17T02:25:28.782Z,99.90
2024-04-17T02:27:58.374Z,99.90
2024-04-17T02:30:25.451Z,99.90
2024-04-17T02:32:55.144Z,99.90
2024-04-17T02:35:27.399Z,99.90
2024-04-17T02:37:54.499Z,99.90
2024-04-17T02:40:24.190Z,99.90
2024-04-17T02:42:51.226Z,99.90
2024-04-17T02:45:20.849Z,99.90
2024-04-17T02:47:48.003Z,99.90
2024-04-17T02:50:17.701Z,99.90
2024-04-17T02:52:47.376Z,99.90
2024-04-17T02:55:17.107Z,99.90
2024-04-17T02:57:44.152Z,99.90
2024-04-17T03:00:18.687Z,99.90
2024-04-17T03:02:45.726Z,99.90
2024-04-17T03:05:15.390Z,99.90
2024-04-17T03:07:45.647Z,99.90
2024-04-17T03:10:18.065Z,99.90
2024-04-17T03:12:45.079Z,99.90
2024-04-17T03:15:14.656Z,99.90
2024-04-17T03:17:41.748Z,99.90
2024-04-17T03:20:12.106Z,99.90
2024-04-17T03:22:39.173Z,99.90
2024-04-17T03:25:09.066Z,99.90
2024-04-17T03:27:38.686Z,99.90
2024-04-17T03:30:09.551Z,99.90
2024-04-17T03:32:36.551Z,99.90
2024-04-17T03:35:06.296Z,99.90
2024-04-17T03:37:35.897Z,99.90
2024-04-17T03:40:05.965Z,99.90
2024-04-17T03:42:35.739Z,99.90
2024-04-17T03:45:08.358Z,99.90
2024-04-17T03:47:40.393Z,99.90
2024-04-17T03:50:07.512Z,99.90
2024-04-17T03:52:37.134Z,99.90
2024-04-17T03:55:04.660Z,99.90
2024-04-17T03:57:34.363Z,99.90
2024-04-17T04:00:01.491Z,99.90
2024-04-17T04:02:33.747Z,99.90
2024-04-17T04:05:00.852Z,99.90
2024-04-17T04:07:30.490Z,99.90
2024-04-17T04:09:57.501Z,99.90
2024-04-17T04:12:27.338Z,99.90
2024-04-17T04:14:54.401Z,99.90
2024-04-17T04:17:24.097Z,99.90
2024-04-17T04:19:53.878Z,99.90
2024-04-17T04:22:23.643Z,99.90
2024-04-17T04:24:50.692Z,99.90
2024-04-17T04:27:20.296Z,99.90
2024-04-17T04:29:47.398Z,99.90
2024-04-17T04:32:17.023Z,99.90
2024-04-17T04:34:44.029Z,99.90
2024-04-17T04:37:16.233Z,99.90
2024-04-17T04:39:43.273Z,99.90
2024-04-17T04:42:12.910Z,99.90
2024-04-17T04:44:39.883Z,99.90
2024-04-17T04:47:09.598Z,99.90
2024-04-17T04:49:37.358Z,99.90
2024-04-17T04:52:07.243Z,99.90
2024-04-17T04:54:36.986Z,99.90
2024-04-17T04:57:06.923Z,99.90
2024-04-17T04:59:33.907Z,99.90
2024-04-17T05:02:03.591Z,99.90
2024-04-17T05:04:30.837Z,99.90
2024-04-17T05:07:00.535Z,99.90
2024-04-17T05:09:28.303Z,99.90
2024-04-17T05:12:00.578Z,99.90
2024-04-17T05:14:27.665Z,99.90
2024-04-17T05:16:57.401Z,99.90
2024-04-17T05:19:24.503Z,99.90
2024-04-17T05:21:54.239Z,99.90
2024-04-17T05:24:21.315Z,99.90
2024-04-17T05:26:50.881Z,99.90
2024-04-17T05:29:20.713Z,99.90
2024-04-17T05:31:50.359Z,99.90
2024-04-17T05:34:17.475Z,99.90
2024-04-17T05:36:47.063Z,99.90
2024-04-17T05:39:14.072Z,99.90
2024-04-17T05:41:43.646Z,99.90
2024-04-17T05:44:10.654Z,99.90
2024-04-17T05:46:43.026Z,99.90
2024-04-17T05:49:10.171Z,99.90
2024-04-17T05:51:39.753Z,99.90
2024-04-17T05:54:06.681Z,99.90
2024-04-17T05:56:36.274Z,99.90
2024-04-17T05:59:03.282Z,99.90
2024-04-17T06:01:32.890Z,99.90
2024-04-17T06:04:02.544Z,99.90
2024-04-17T06:06:32.145Z,99.90
2024-04-17T06:08:59.128Z,99.90
2024-04-17T06:11:28.882Z,99.90
2024-04-17T06:13:56.845Z,99.90
2024-04-17T06:16:26.482Z,99.90
2024-04-17T06:18:53.552Z,99.90
2024-04-17T06:21:25.912Z,99.90
2024-04-17T06:23:52.889Z,99.90
2024-04-17T06:26:22.545Z,99.90
2024-04-17T06:28:49.591Z,99.90
2024-04-17T06:31:19.271Z,99.90
2024-04-17T06:33:46.310Z,99.90
2024-04-17T06:36:16.205Z,99.90
2024-04-17T06:38:45.815Z,99.90
2024-04-17T06:41:15.602Z,99.90
2024-04-17T06:43:42.652Z,99.90
2024-04-17T06:46:12.338Z,99.90
2024-04-17T06:48:39.422Z,99.90
2024-04-17T06:51:09.064Z,99.90
2024-04-17T06:53:38.479Z,99.90
2024-04-17T06:56:12.126Z,99.90
2024-04-17T06:58:39.576Z,99.90
2024-04-17T07:01:09.226Z,99.90
2024-04-17T07:03:36.492Z,99.90
2024-04-17T07:06:06.260Z,99.90
2024-04-17T07:08:33.274Z,99.90
2024-04-17T07:11:02.890Z,99.90
2024-04-17T07:13:35.557Z,99.90
2024-04-17T07:16:02.571Z,99.90
2024-04-17T07:18:32.208Z,99.90
2024-04-17T07:20:59.265Z,99.90
2024-04-17T07:23:28.900Z,99.90
2024-04-17T07:25:55.989Z,99.90
2024-04-17T07:28:25.787Z,99.90
2024-04-17T07:30:55.431Z,99.90
2024-04-17T07:33:25.203Z,99.90
2024-04-17T07:35:58.544Z,99.90
2024-04-17T07:38:29.728Z,99.90
2024-04-17T07:40:57.903Z,99.90
2024-04-17T07:43:31.714Z,99.90
2024-04-17T07:46:01.668Z,99.90
2024-04-17T07:48:31.659Z,99.90
2024-04-17T07:50:58.732Z,99.90
2024-04-17T07:53:28.528Z,99.90
2024-04-17T07:55:57.328Z,99.90
2024-04-17T07:58:26.982Z,99.90
2024-04-17T08:00:54.065Z,99.90
2024-04-17T08:03:26.377Z,99.90
2024-04-17T08:05:53.456Z,99.90
2024-04-17T08:08:23.092Z,99.90
2024-04-17T08:10:50.198Z,99.90
2024-04-17T08:13:19.874Z,99.90
2024-04-17T08:15:50.510Z,99.90
2024-04-17T08:18:20.220Z,99.90
2024-04-17T08:20:55.806Z,99.90
2024-04-17T08:23:26.962Z,99.90
2024-04-17T08:25:55.474Z,99.90
2024-04-17T08:28:25.255Z,99.90
2024-04-17T08:30:54.157Z,99.90
2024-04-17T08:33:24.230Z,99.90
2024-04-17T08:35:54.032Z,99.90
2024-04-17T08:38:23.754Z,99.90
2024-04-17T08:40:52.366Z,99.90
2024-04-17T08:43:28.070Z,99.90
2024-04-17T08:45:55.858Z,99.90
2024-04-17T08:48:27.540Z,99.90
2024-04-17T08:50:57.470Z,99.90
2024-04-17T08:53:27.262Z,99.90
2024-04-17T08:55:54.333Z,99.90
2024-04-17T08:58:23.935Z,99.90
2024-04-17T09:00:51.976Z,99.90
2024-04-17T09:03:25.484Z,99.90
2024-04-17T09:05:57.615Z,99.90
2024-04-17T09:08:27.950Z,99.90
2024-04-17T09:10:56.152Z,99.90
2024-04-17T09:13:26.098Z,99.90
2024-04-17T09:15:53.842Z,99.90
2024-04-17T09:18:28.257Z,99.90
2024-04-17T09:20:58.466Z,99.90
2024-04-17T09:23:28.148Z,99.90
2024-04-17T09:25:56.068Z,99.90
2024-04-17T09:28:26.240Z,99.90
2024-04-17T09:30:53.360Z,99.90
2024-04-17T09:33:23.101Z,99.90
2024-04-17T09:35:52.699Z,99.90
2024-04-17T09:38:26.433Z,99.90
2024-04-17T09:40:53.586Z,99.90
2024-04-17T09:43:29.646Z,99.90
2024-04-17T09:45:59.763Z,99.90
2024-04-17T09:48:29.700Z,99.90
2024-04-17T09:51:00.102Z,99.90
2024-04-17T09:53:37.905Z,99.90
2024-04-17T09:56:08.110Z,99.90
2024-04-17T09:58:38.591Z,99.90
2024-04-17T10:01:07.714Z,99.90
2024-04-17T10:03:37.976Z,99.90
2024-04-17T10:06:05.591Z,99.90
2024-04-17T10:08:39.085Z,99.90
2024-04-17T10:11:06.240Z,99.90
2024-04-17T10:13:36.206Z,99.90
2024-04-17T10:16:05.059Z,99.90
2024-04-17T10:18:34.699Z,99.90
2024-04-17T10:21:01.793Z,99.90
2024-04-17T10:23:31.414Z,99.90
2024-04-17T10:26:01.154Z,99.90
2024-04-17T10:28:30.862Z,99.90
2024-04-17T10:30:57.996Z,99.90
2024-04-17T10:33:31.004Z,99.90
2024-04-17T10:35:58.464Z,99.90
2024-04-17T10:38:32.121Z,99.90
2024-04-17T10:41:05.195Z,99.90
2024-04-17T10:43:36.402Z,99.90
2024-04-17T10:46:06.287Z,99.90
2024-04-17T10:48:45.126Z,99.90
2024-04-17T10:51:14.012Z,99.90
2024-04-17T10:53:44.178Z,99.90
2024-04-17T10:56:15.822Z,99.90
2024-04-17T10:58:46.049Z,99.90
2024-04-17T11:01:13.475Z,99.90
2024-04-17T11:03:43.752Z,99.90
2024-04-17T11:06:11.725Z,99.90
2024-04-17T11:08:54.573Z,99.90
2024-04-17T11:11:28.453Z,99.90
2024-04-17T11:13:58.214Z,99.90
2024-04-17T11:16:25.387Z,99.90
2024-04-17T11:18:55.105Z,99.90
2024-04-17T11:21:23.311Z,99.90
2024-04-17T11:23:52.982Z,99.70
2024-04-17T11:26:20.088Z,98.60
2024-04-17T11:28:52.655Z,95.30
2024-04-17T11:31:19.880Z,96.60
2024-04-17T11:33:49.555Z,97.50
2024-04-17T11:36:16.900Z,97.00
2024-04-17T11:38:46.709Z,97.50
2024-04-17T11:41:15.494Z,92.60
2024-04-17T11:43:46.302Z,92.00
2024-04-17T11:46:16.588Z,91.30
2024-04-17T11:48:46.457Z,89.90
2024-04-17T11:51:13.502Z,89.80
2024-04-17T11:53:43.070Z,90.20
2024-04-17T11:56:10.129Z,93.20
2024-04-17T11:58:40.000Z,91.90
2024-04-17T12:01:07.112Z,92.10
2024-04-17T12:03:39.769Z,92.40
2024-04-17T12:06:07.878Z,92.90
2024-04-17T12:08:37.691Z,93.70
2024-04-17T12:11:05.172Z,93.50
2024-04-17T12:13:35.247Z,93.30
2024-04-17T12:16:02.390Z,94.70
2024-04-17T12:18:32.229Z,94.60
2024-04-17T12:21:01.809Z,95.20
2024-04-17T12:23:31.666Z,94.70
2024-04-17T12:26:16.995Z,94.50
2024-04-17T12:28:46.648Z,95.10
2024-04-17T12:31:16.231Z,96.70
2024-04-17T12:33:45.954Z,98.60
2024-04-17T12:36:18.217Z,99.90
2024-04-17T12:38:47.838Z,99.10
2024-04-17T12:41:17.503Z,99.50
2024-04-17T12:43:48.051Z,98.40
2024-04-17T12:46:18.843Z,97.40
2024-04-17T12:48:49.713Z,97.40
2024-04-17T12:51:21.886Z,99.20
2024-04-17T12:53:51.450Z,99.60
2024-04-17T12:56:21.037Z,99.90
2024-04-17T12:58:48.052Z,99.90
2024-04-17T13:01:17.672Z,99.90
2024-04-17T13:03:44.825Z,99.90
2024-04-17T13:06:15.117Z,99.90
2024-04-17T13:08:44.711Z,99.90
2024-04-17T13:11:15.664Z,99.90
2024-04-17T13:13:43.160Z,99.30
2024-04-17T13:16:12.867Z,99.90
2024-04-17T13:18:40.852Z,99.90
2024-04-17T13:21:10.514Z,99.90
2024-04-17T13:23:37.660Z,99.90
2024-04-17T13:26:10.143Z,99.90
2024-04-17T13:28:37.252Z,99.90
2024-04-17T13:31:08.070Z,99.90
2024-04-17T13:33:36.229Z,99.90
2024-04-17T13:36:06.963Z,99.90
2024-04-17T13:38:34.068Z,99.90
2024-04-17T13:41:04.680Z,99.90
2024-04-17T13:43:34.678Z,99.90
2024-04-17T13:46:08.784Z,99.90
2024-04-17T13:48:36.097Z,99.90
2024-04-17T13:51:06.551Z,99.90
2024-04-17T13:53:33.594Z,99.90
2024-04-17T13:56:03.573Z,99.90
2024-04-17T13:58:34.039Z,99.90
2024-04-17T14:01:06.687Z,99.90
2024-04-17T14:03:33.798Z,99.90
2024-04-17T14:06:03.724Z,99.90
2024-04-17T14:08:30.753Z,99.90
2024-04-17T14:11:03.597Z,99.20
2024-04-17T14:13:34.807Z,99.90
2024-04-17T14:16:07.255Z,98.70
2024-04-17T14:18:34.472Z,98.10
2024-04-17T14:21:07.664Z,97.80
2024-04-17T14:23:34.949Z,97.00
2024-04-17T14:26:05.139Z,96.50
2024-04-17T14:28:34.808Z,97.60
2024-04-17T14:31:05.019Z,98.40
2024-04-17T14:33:33.142Z,99.90
2024-04-17T14:36:06.247Z,99.90
2024-04-17T14:38:33.557Z,99.90
2024-04-17T14:41:04.892Z,99.90
2024-04-17T14:43:36.524Z,99.90
2024-04-17T14:46:07.257Z,99.90
2024-04-17T14:48:35.234Z,99.90
2024-04-17T14:51:06.458Z,99.90
2024-04-17T14:53:34.262Z,99.90
2024-04-17T14:56:04.679Z,99.90
2024-04-17T14:58:35.239Z,99.90
2024-04-17T15:01:07.812Z,99.90
2024-04-17T15:03:36.175Z,99.90
2024-04-17T15:06:12.237Z,99.90
2024-04-17T15:08:41.297Z,99.90
2024-04-17T15:11:11.962Z,99.90
2024-04-17T15:13:42.972Z,99.90
2024-04-17T15:16:13.396Z,99.90
2024-04-17T15:18:40.846Z,99.90
2024-04-17T15:21:11.179Z,99.90
2024-04-17T15:23:39.444Z,99.90
2024-04-17T15:26:09.793Z,99.90
2024-04-17T15:28:37.185Z,99.90
2024-04-17T15:31:13.293Z,99.90
2024-04-17T15:33:41.150Z,99.90
2024-04-17T15:36:11.243Z,99.90
2024-04-17T15:38:38.295Z,99.90
2024-04-17T15:41:08.593Z,99.90
2024-04-17T15:43:36.080Z,99.90
2024-04-17T15:46:13.364Z,99.90
2024-04-17T15:48:40.650Z,99.90
2024-04-17T15:51:11.017Z,99.90
2024-04-17T15:53:38.595Z,99.90
2024-04-17T15:56:15.518Z,99.90
2024-04-17T15:58:42.556Z,99.90
2024-04-17T16:01:15.748Z,99.90
2024-04-17T16:03:43.294Z,99.90
2024-04-17T16:06:13.740Z,99.90
2024-04-17T16:08:40.929Z,99.90
2024-04-17T16:11:10.685Z,99.90
2024-04-17T16:13:38.334Z,99.90
2024-04-17T16:16:10.330Z,99.90
2024-04-17T16:18:40.336Z,99.90
2024-04-17T16:21:13.472Z,99.90
2024-04-17T16:23:40.545Z,99.90
2024-04-17T16:26:14.316Z,99.90
2024-04-17T16:28:46.824Z,99.90
2024-04-17T16:31:14.155Z,99.90
2024-04-17T16:33:47.333Z,99.90
2024-04-17T16:36:14.647Z,99.90
2024-04-17T16:38:44.287Z,99.90
2024-04-17T16:41:11.695Z,99.90
2024-04-17T16:43:41.422Z,99.90
2024-04-17T16:46:08.856Z,99.90
2024-04-17T16:48:40.664Z,99.90
2024-04-17T16:51:11.621Z,99.90
2024-04-17T16:53:41.644Z,99.90
2024-04-17T16:56:09.023Z,99.90
2024-04-17T16:58:41.087Z,99.90
2024-04-17T17:01:10.997Z,99.90
2024-04-17T17:03:38.516Z,99.90
2024-04-17T17:06:09.412Z,99.90
2024-04-17T17:08:39.096Z,99.90
2024-04-17T17:11:09.034Z,99.90
2024-04-17T17:13:36.376Z,99.90
2024-04-17T17:16:07.232Z,99.90
2024-04-17T17:18:35.020Z,99.90
2024-04-17T17:21:08.029Z,99.90
2024-04-17T17:23:35.213Z,99.90
2024-04-17T17:26:13.632Z,99.90
2024-04-17T17:28:41.485Z,99.90
2024-04-17T17:31:11.506Z,99.90
2024-04-17T17:33:38.708Z,99.90
2024-04-17T17:36:14.139Z,99.90
2024-04-17T17:38:41.766Z,99.90
2024-04-17T17:41:14.752Z,99.90
2024-04-17T17:43:43.591Z,99.90
2024-04-17T17:46:13.685Z,99.90
2024-04-17T17:48:42.227Z,99.90
2024-04-17T17:51:12.094Z,99.90
2024-04-17T17:53:40.388Z,99.90
2024-04-17T17:56:13.281Z,99.90
2024-04-17T17:58:43.581Z,99.90
2024-04-17T18:01:17.240Z,99.90
2024-04-17T18:03:46.798Z,99.90
2024-04-17T18:06:16.652Z,99.90
2024-04-17T18:08:43.778Z,99.90
2024-04-17T18:11:19.159Z,99.90
2024-04-17T18:13:46.450Z,99.90
2024-04-17T18:16:25.636Z,99.90
2024-04-17T18:19:00.097Z,99.90
2024-04-17T18:21:29.992Z,99.90
2024-04-17T18:23:57.508Z,99.90
2024-04-17T18:26:30.203Z,99.90
2024-04-17T18:28:57.438Z,99.90
2024-04-17T18:31:27.053Z,99.90
2024-04-17T18:33:54.407Z,99.90
2024-04-17T18:36:29.349Z,99.90
2024-04-17T18:38:57.384Z,99.90
2024-04-17T18:41:29.675Z,99.90
2024-04-17T18:43:57.542Z,99.90
2024-04-17T18:46:27.834Z,99.90
2024-04-17T18:48:56.029Z,99.90
2024-04-17T18:51:25.917Z,99.90
2024-04-17T18:53:53.233Z,99.90
2024-04-17T18:56:23.858Z,99.90
2024-04-17T18:58:53.558Z,99.90
2024-04-17T19:01:24.362Z,99.90
2024-04-17T19:03:52.158Z,99.90
2024-04-17T19:06:22.303Z,99.90
2024-04-17T19:08:50.374Z,99.90
2024-04-17T19:11:20.301Z,99.90
2024-04-17T19:13:47.460Z,99.90
2024-04-17T19:16:21.149Z,99.90
2024-04-17T19:18:49.384Z,99.90
2024-04-17T19:21:19.502Z,99.90
2024-04-17T19:23:46.971Z,99.90
2024-04-17T19:26:17.058Z,99.90
2024-04-17T19:28:44.811Z,99.90
2024-04-17T19:31:14.765Z,99.90
2024-04-17T19:33:48.727Z,99.90
2024-04-17T19:36:19.073Z,99.90
2024-04-17T19:38:48.485Z,99.90
2024-04-17T19:41:18.162Z,99.90
2024-04-17T19:43:46.276Z,99.90
2024-04-17T19:46:16.383Z,99.90
2024-04-17T19:48:46.428Z,99.90
2024-04-17T19:51:17.837Z,99.90
2024-04-17T19:53:45.149Z,99.90
2024-04-17T19:56:15.567Z,99.90
2024-04-17T19:58:42.649Z,99.90
2024-04-17T20:01:13.868Z,99.90
2024-04-17T20:03:41.502Z,99.90
2024-04-17T20:06:14.262Z,99.90
2024-04-17T20:08:42.070Z,99.90
2024-04-17T20:11:12.795Z,99.90
2024-04-17T20:13:40.092Z,99.90
2024-04-17T20:16:11.029Z,99.90
2024-04-17T20:18:38.419Z,99.90
2024-04-17T20:21:09.645Z,99.90
2024-04-17T20:23:40.099Z,99.90
2024-04-17T20:26:11.264Z,99.90
2024-04-17T20:28:44.399Z,99.90
2024-04-17T20:31:21.462Z,99.90
2024-04-17T20:33:48.707Z,99.90
2024-04-17T20:36:19.379Z,99.90
2024-04-17T20:38:49.795Z,99.90
2024-04-17T20:41:19.467Z,99.90
2024-04-17T20:43:46.489Z,99.90
2024-04-17T20:46:16.908Z,99.90
2024-04-17T20:48:44.595Z,99.90
2024-04-17T20:51:14.574Z,99.90
2024-04-17T20:53:42.166Z,99.90
2024-04-17T20:56:14.587Z,99.90
2024-04-17T20:58:41.599Z,99.90
2024-04-17T21:01:12.042Z,99.90
2024-04-17T21:03:39.591Z,99.90
2024-04-17T21:06:10.452Z,99.90
2024-04-17T21:08:37.803Z,99.90
2024-04-17T21:11:08.498Z,99.90
2024-04-17T21:13:38.403Z,99.90
2024-04-17T21:16:09.410Z,99.90
2024-04-17T21:18:37.104Z,99.90
2024-04-17T21:21:07.187Z,99.90
2024-04-17T21:23:34.984Z,99.90
2024-04-17T21:26:04.612Z,99.90
2024-04-17T21:28:31.975Z,99.90
2024-04-17T21:31:04.262Z,99.90
2024-04-17T21:33:31.386Z,99.90
2024-04-17T21:36:01.018Z,99.90
2024-04-17T21:38:28.157Z,99.90
2024-04-17T21:40:58.814Z,99.90
2024-04-17T21:43:26.132Z,99.90
2024-04-17T21:45:56.118Z,99.90
2024-04-17T21:48:25.797Z,99.90
2024-04-17T21:50:56.745Z,99.90
2024-04-17T21:53:23.905Z,99.90
2024-04-17T21:56:00.420Z,99.90
2024-04-17T21:58:27.453Z,99.90
2024-04-17T22:00:58.331Z,99.90
2024-04-17T22:03:28.403Z,99.90
2024-04-17T22:06:00.523Z,99.90
2024-04-17T22:08:28.730Z,99.90
2024-04-17T22:10:59.403Z,99.90
2024-04-17T22:13:26.501Z,99.90
2024-04-17T22:15:56.157Z,99.90
2024-04-17T22:18:23.205Z,99.90
2024-04-17T22:20:55.763Z,99.90
2024-04-17T22:23:23.002Z,99.90
2024-04-17T22:25:52.735Z,99.90
2024-04-17T22:28:19.732Z,99.90
2024-04-17T22:30:49.420Z,99.90
2024-04-17T22:33:16.537Z,99.90
2024-04-17T22:35:46.272Z,99.90
2024-04-17T22:38:16.034Z,99.90
2024-04-17T22:40:45.867Z,99.90
2024-04-17T22:43:12.891Z,99.90
2024-04-17T22:45:42.582Z,99.90
2024-04-17T22:48:09.706Z,99.90
2024-04-17T22:50:39.351Z,99.90
2024-04-17T22:53:06.386Z,99.90
2024-04-17T22:55:38.586Z,99.90
2024-04-17T22:58:05.610Z,99.90
2024-04-17T23:00:35.222Z,99.90
2024-04-17T23:03:02.279Z,99.90
2024-04-17T23:05:32.146Z,99.90
2024-04-17T23:07:59.229Z,99.90
2024-04-17T23:10:28.848Z,99.90
2024-04-17T23:12:59.273Z,99.90
2024-04-17T23:15:29.124Z,99.90
2024-04-17T23:17:56.243Z,99.90
2024-04-17T23:20:25.925Z,99.90
2024-04-17T23:22:52.953Z,99.90
2024-04-17T23:25:22.580Z,99.90
2024-04-17T23:27:51.158Z,99.90
2024-04-17T23:30:23.615Z,99.90
2024-04-17T23:32:51.606Z,99.90
2024-04-17T23:35:21.373Z,99.90
2024-04-17T23:37:48.385Z,99.90
2024-04-17T23:40:18.037Z,99.90
2024-04-17T23:42:45.170Z,99.90
2024-04-17T23:45:14.937Z,99.90
2024-04-17T23:47:44.642Z,99.90
2024-04-17T23:50:14.291Z,99.90
2024-04-17T23:52:41.284Z,99.90
2024-04-17T23:55:10.885Z,99.90
2024-04-17T23:57:37.888Z,99.90
